Latest Coastal Weather Observations for Laverton

IDV60701

Issued at 3:35 am EST Monday 21 April 2014 (issued every 10 minutes, with the page automatically refreshed every 10 minutes)

About coastal observations | Map of coastal stations | Coastal observations for VIC | Marine services | Other Formats
Station Details ID: 087031 Name: LAVERTON RAAF Lat: -37.86 Lon: 144.76 Height: 20.1 m
Data from the previous 72 hours. | See also: Recent months at Laverton
Date/Time
EST
Temp

°C
Wind Pressure Rain
since 9am
mm
Weather Cloud Vis
km
Sea
Height
m
Swell
Dir
 
Speed
knots
Gust
knots
hPa Trend Height
m
Period
s
Dir
21/03:30am 10.8 N 5 6 1017.5 - 0.0 - - 10 - - - -
21/03:00am 11.3 N 5 8 1017.4 - 0.0 - - 10 - - - -
21/02:30am 11.8 NNE 6 8 1017.5 - 0.0 - - 10 - - - -
21/02:00am 12.7 NNE 6 8 1017.7 - 0.0 - Partly cloudy 10 - - - -
21/01:30am 13.5 NNE 9 13 1017.5 - 0.0 - Cloudy 10 - - - -
21/01:00am 13.9 N 9 13 1017.6 - 0.0 - Cloudy 10 - - - -
21/12:30am 14.0 N 11 16 1017.5 - 0.0 - Cloudy 10 - - - -
21/12:00am 13.5 N 8 11 1017.5 - 0.0 - Cloudy 10 - - - -
 
Date/Time
EST
Temp

°C
Wind Pressure Rain
since 9am
mm
Weather Cloud Vis
km
Sea
Height
m
Swell
Dir
 
Speed
knots
Gust
knots
hPa Trend Height
m
Period
s
Dir
20/11:30pm 13.4 N 7 10 1017.7 - 0.0 - Cloudy 10 - - - -
20/11:00pm 13.5 N 8 12 1017.8 - 0.0 - Cloudy 10 - - - -
20/10:30pm 13.2 N 8 12 1018.0 - 0.0 - Partly cloudy 10 - - - -
20/10:00pm 13.4 N 7 9 1018.1 - 0.0 - Partly cloudy 10 - - - -
20/09:30pm 13.6 N 7 10 1017.9 - 0.0 - Partly cloudy 10 - - - -
20/09:00pm 14.2 N 7 10 1017.8 - 0.0 - Mostly cloudy 10 - - - -
20/08:30pm 13.9 N 6 7 1017.8 - 0.0 - Partly cloudy 10 - - - -
20/08:00pm 14.6 N 8 11 1017.7 - 0.0 - Partly cloudy 10 - - - -
20/07:30pm 15.2 N 7 9 1017.5 - 0.0 - Cloudy 10 - - - -
20/07:00pm 15.2 N 6 8 1017.3 - 0.0 - Partly cloudy 10 - - - -
20/06:30pm 15.4 N 6 8 1017.1 - 0.0 - Partly cloudy 10 - - - -
20/06:00pm 15.3 NNW 4 5 1016.8 - 0.0 - Partly cloudy 10 - - - -
20/05:30pm 15.9 NNW 4 5 1016.5 - 0.0 - - 10 - - - -
20/05:00pm 16.9 NW 6 8 1016.4 - 0.0 - - 10 - - - -
20/04:30pm 18.8 NW 10 14 1016.2 - 0.0 - Partly cloudy 10 - - - -
20/04:00pm 19.5 NNW 8 14 1016.0 - 0.0 - Partly cloudy 10 - - - -
20/03:30pm 18.5 WNW 9 13 1016.1 - 0.0 - Cloudy 10 - - - -
20/03:00pm 18.2 W 9 13 1016.2 - 0.0 - Mostly cloudy 10 - - - -
20/02:30pm 18.0 WSW 10 12 1016.1 - 0.0 - Cloudy 10 - - - -
20/02:00pm 18.1 WNW 10 15 1016.0 - 0.0 - Partly cloudy 10 - - - -
20/01:30pm 18.3 W 10 14 1016.1 - 0.0 - Cloudy 10 - - - -
20/01:00pm 18.7 NW 11 16 1016.3 - 0.0 - Partly cloudy 10 - - - -
20/12:30pm 17.5 WNW 12 16 1016.8 - 0.0 - Cloudy 10 - - - -
20/12:00pm 17.3 W 10 15 1017.1 - 0.0 - Cloudy 10 - - - -
20/11:30am 16.7 WNW 10 16 1017.5 - 0.0 - Partly cloudy 10 - - - -
20/11:00am 17.1 WNW 13 18 1017.6 - 0.0 - Partly cloudy 10 - - - -
20/10:30am 16.8 NW 14 19 1017.8 - 0.0 - Partly cloudy 10 - - - -
20/10:00am 16.5 WNW 11 16 1017.9 - 0.0 - Partly cloudy 10 - - - -
20/09:30am 15.2 NW 10 14 1018.1 - 0.0 - Cloudy 10 - - - -
20/09:00am 14.2 NNW 8 10 1018.1 - 0.0 - Cloudy 10 - - - -
20/08:30am 12.6 W 6 7 1018.0 - 0.0 - Cloudy 10 - - - -
20/08:00am 11.9 W 4 5 1017.9 - 0.0 - Cloudy 10 - - - -
20/07:30am 11.8 W 3 4 1017.7 - 0.0 - Cloudy 10 - - - -
20/07:00am 11.7 W 4 5 1017.5 - 0.0 - Cloudy 10 - - - -
20/06:30am 11.5 W 5 6 1017.3 - 0.0 - Cloudy 10 - - - -
20/06:00am 11.2 W 3 4 1017.1 - 0.0 - Cloudy 10 - - - -
20/05:30am 11.5 W 4 5 1017.0 - 0.0 - Partly cloudy 10 - - - -
20/05:00am 11.8 W 4 5 1016.8 - 0.0 - Partly cloudy 10 - - - -
20/04:30am 11.8 WSW 4 5 1016.9 - 0.0 - Cloudy 10 - - - -
20/04:00am 11.6 WSW 4 5 1016.7 - 0.0 - Cloudy 10 - - - -
20/03:30am 11.8 WSW 5 6 1016.9 - 0.0 - Cloudy 10 - - - -
20/03:00am 11.8 W 5 6 1016.8 - 0.0 - Cloudy 10 - - - -
20/02:30am 11.8 WSW 4 6 1017.0 - 0.0 - Cloudy 10 - - - -
20/02:00am 11.8 WSW 5 5 1017.3 - 0.0 - Cloudy 10 - - - -
20/01:30am 11.8 WSW 4 5 1017.3 - 0.0 - Cloudy 10 - - - -
20/01:00am 11.9 WSW 4 6 1017.5 - 0.0 - Cloudy 10 - - - -
20/12:30am 11.9 WSW 4 5 1017.4 - 0.0 - Partly cloudy 10 - - - -
20/12:00am 11.7 WSW 4 5 1017.6 - 0.0 - Mostly cloudy 10 - - - -
 
Date/Time
EST
Temp

°C
Wind Pressure Rain
since 9am
mm
Weather Cloud Vis
km
Sea
Height
m
Swell
Dir
 
Speed
knots
Gust
knots
hPa Trend Height
m
Period
s
Dir
19/11:30pm 11.7 WSW 4 5 1017.8 - 0.0 - Cloudy 10 - - - -
19/11:00pm 11.9 WSW 5 6 1018.2 - 0.0 - Cloudy 10 - - - -
19/10:30pm 11.6 WSW 5 6 1018.3 - 0.0 - Cloudy 10 - - - -
19/10:00pm 11.9 WSW 6 7 1018.4 - 0.0 - Cloudy 10 - - - -
19/09:30pm 12.3 WSW 4 5 1018.6 - 0.0 - Cloudy 10 - - - -
19/09:00pm 13.4 S 3 3 1018.6 - 0.0 - Cloudy 10 - - - -
19/08:30pm 13.7 S 1 4 1018.7 - 0.0 - Cloudy 10 - - - -
19/08:00pm 13.8 CALM 0 0 1018.8 - 0.0 - Cloudy 10 - - - -
19/07:30pm 13.9 CALM 0 0 1018.8 - 0.0 - Cloudy 10 - - - -
19/07:00pm 14.1 S 3 5 1018.7 - 0.0 - Cloudy 10 - - - -
19/06:30pm 14.3 S 5 7 1018.6 - 0.0 - Cloudy 10 - - - -
19/06:00pm 14.6 SW 6 7 1018.5 - 0.0 - Cloudy 10 - - - -
19/05:30pm 14.8 SW 6 9 1018.5 - 0.0 - Cloudy 10 - - - -
19/05:00pm 14.9 SW 7 10 1018.5 - 0.0 - Cloudy 10 - - - -
19/04:30pm 15.0 SSW 9 13 1018.6 - 0.0 - Partly cloudy 10 - - - -
19/04:00pm 15.7 SW 12 16 1018.7 - 0.0 - Partly cloudy 10 - - - -
19/03:30pm 16.9 SW 7 11 1018.6 - 0.0 - Partly cloudy 10 - - - -
19/03:00pm 17.5 WSW 8 12 1018.6 - 0.0 - Cloudy 10 - - - -
19/02:30pm 15.9 WSW 9 13 1018.8 - 0.0 - Partly cloudy 10 - - - -
19/02:00pm 15.6 S 9 14 1019.0 - 0.0 - Partly cloudy 10 - - - -
19/01:30pm 15.9 SW 14 17 1019.1 - 0.0 - Cloudy 10 - - - -
19/01:00pm 16.1 S 9 12 1019.4 - 0.0 - Cloudy 10 - - - -
19/12:30pm 16.4 SW 10 15 1019.8 - 0.0 - Cloudy 10 - - - -
19/12:00pm 16.5 SW 11 16 1020.2 - 0.0 - Cloudy 10 - - - -
19/11:30am 16.2 SW 12 15 1020.5 - 0.0 - Partly cloudy 10 - - - -
19/11:00am 15.5 SW 12 17 1020.6 - 0.0 - Cloudy 10 - - - -
19/10:30am 14.9 WSW 15 19 1020.7 - 0.0 - Cloudy 10 - - - -
19/10:00am 14.9 WSW 14 19 1020.7 - 0.0 - Partly cloudy 10 - - - -
19/09:30am 14.1 WSW 10 14 1020.7 - 0.0 - Partly cloudy 10 - - - -
19/09:00am 13.0 WSW 8 11 1020.7 - 0.4 - Cloudy 10 - - - -
19/08:30am 12.4 WSW 8 11 1020.7 - 0.4 - Cloudy 10 - - - -
19/08:00am 11.5 W 8 11 1020.4 - 0.4 - Cloudy 10 - - - -
19/07:30am 11.0 W 8 11 1020.0 - 0.4 - Partly cloudy 10 - - - -
19/07:00am 11.3 W 10 13 1019.8 - 0.4 - Partly cloudy 10 - - - -
19/06:30am 11.4 WSW 10 16 1019.7 - 0.4 - Cloudy 10 - - - -
19/06:00am 10.8 WSW 5 9 1019.4 - 0.4 - Partly cloudy 10 - - - -
19/05:30am 11.2 W 7 10 1019.1 - 0.4 - Partly cloudy 10 - - - -
19/05:00am 11.7 WSW 9 12 1019.1 - 0.4 - Cloudy 10 - - - -
19/04:30am 11.6 WSW 8 11 1019.1 - 0.4 - Cloudy 10 - - - -
19/04:00am 11.4 W 7 9 1019.2 - 0.4 - Partly cloudy 10 - - - -
19/03:30am 11.5 W 9 13 1019.3 - 0.4 - Cloudy 10 - - - -
19/03:00am 10.8 W 7 8 1019.3 - 0.4 - Cloudy 10 - - - -
19/02:30am 10.7 W 7 8 1019.7 - 0.4 - Partly cloudy 10 - - - -
19/02:00am 10.8 W 8 10 1019.9 - 0.4 - Cloudy 10 - - - -
19/01:30am 10.7 W 6 9 1019.9 - 0.4 - Partly cloudy 10 - - - -
19/01:00am 11.0 W 8 10 1020.0 - 0.4 - Cloudy 10 - - - -
19/12:30am 11.1 W 8 11 1020.1 - 0.4 - Partly cloudy 10 - - - -
19/12:00am 11.1 W 8 10 1020.1 - 0.4 - Mostly cloudy 10 - - - -
 
Date/Time
EST
Temp

°C
Wind Pressure Rain
since 9am
mm
Weather Cloud Vis
km
Sea
Height
m
Swell
Dir
 
Speed
knots
Gust
knots
hPa Trend Height
m
Period
s
Dir
18/11:30pm 10.8 W 8 10 1020.1 - 0.4 - Partly cloudy 10 - - - -
18/11:00pm 10.8 W 6 8 1020.0 - 0.4 - Partly cloudy 10 - - - -
18/10:30pm 11.1 W 8 10 1020.2 - 0.4 - Partly cloudy 10 - - - -
18/10:00pm 11.5 W 11 14 1020.3 - 0.4 - - 10 - - - -
18/09:30pm 11.9 WSW 9 13 1020.3 - 0.4 - - 10 - - - -
18/09:00pm 12.2 WSW 9 12 1020.0 - 0.4 - Partly cloudy 10 - - - -
18/08:30pm 12.2 WSW 9 12 1019.8 - 0.4 - Partly cloudy 10 - - - -
18/08:00pm 12.6 WSW 10 13 1019.8 - 0.4 - - 10 - - - -
18/07:30pm 13.1 WSW 9 12 1019.6 - 0.4 - - 10 - - - -
18/07:00pm 13.3 WSW 9 12 1019.2 - 0.4 - Partly cloudy 10 - - - -
18/06:30pm 13.8 SW 12 16 1019.0 - 0.4 - - 10 - - - -
18/06:00pm 14.4 SSW 12 16 1018.7 - 0.4 - - 10 - - - -
18/05:30pm 15.3 SW 12 17 1018.5 - 0.4 - Partly cloudy 10 - - - -
18/05:00pm 15.4 SSW 11 15 1018.2 - 0.4 - - 10 - - - -
18/04:30pm 16.3 SSW 13 20 1017.8 - 0.4 - Partly cloudy 10 - - - -
18/04:00pm 15.9 SSW 15 21 1017.6 - 0.4 - Partly cloudy 10 - - - -
18/03:30pm 16.2 SSW 16 22 1017.4 - 0.4 - Partly cloudy 10 - - - -
18/03:00pm 16.7 S 13 20 1017.1 - 0.4 - Cloudy 10 - - - -
18/02:30pm 17.4 SSW 14 18 1016.9 - 0.4 - Partly cloudy 10 - - - -
18/02:00pm 16.8 SSW 17 21 1016.8 - 0.4 - Partly cloudy 10 - - - -
18/01:30pm 15.9 SSW 13 17 1016.6 - 0.4 - Partly cloudy 10 - - - -
18/01:00pm 14.9 SSW 13 17 1016.7 - 0.4 - Partly cloudy 10 - - - -
18/12:30pm 14.7 SSW 14 22 1016.8 - 0.2 - Partly cloudy 10 - - - -
18/12:00pm 15.6 W 14 18 1016.6 - 0.2 - Cloudy 10 - - - -
18/11:30am 15.5 W 17 24 1016.3 - 0.2 - Partly cloudy 10 - - - -
18/11:00am 15.2 W 17 23 1016.1 - 0.2 - Partly cloudy 10 - - - -
18/10:43am 14.7 W 17 23 1015.9 - 0.0 - Partly cloudy 10 - - - -
18/10:30am 14.4 W 18 31 1015.9 - 0.0 - Partly cloudy 6 - - - -
18/10:19am 15.0 WSW 29 39 1015.8 - 0.0 - Partly cloudy 8 - - - -
18/10:17am 15.8 WSW 29 39 1015.8 - 0.0 - Partly cloudy 10 - - - -
18/10:16am 16.4 WSW 31 39 1015.7 - 0.0 - Partly cloudy 10 - - - -
18/10:14am 18.8 W 17 30 1015.5 - 0.0 - Partly cloudy 10 - - - -
18/10:00am 19.3 WNW 19 22 1015.0 - 0.0 - Partly cloudy 10 - - - -
18/09:30am 16.5 W 7 9 1015.4 - 0.0 - Partly cloudy 10 - - - -
18/09:00am 16.0 WNW 7 8 1015.1 - 0.0 - Mostly cloudy 10 - - - -
18/08:30am 15.9 NNW 5 7 1014.7 - 0.0 - Cloudy 10 - - - -
18/08:00am 13.8 N 3 4 1015.1 - 0.0 - Cloudy 10 - - - -
18/07:30am 13.5 N 4 5 1014.7 - 0.0 - Cloudy 10 - - - -
18/07:00am 13.1 N 5 8 1014.8 - 0.0 - Cloudy 10 - - - -
18/06:30am 12.9 N 7 10 1014.9 - 0.0 - Partly cloudy 10 - - - -
18/06:00am 13.7 N 7 9 1014.9 - 0.0 - Mostly cloudy 10 - - - -
18/05:30am 12.5 NNW 7 9 1015.3 - 0.0 - Partly cloudy 10 - - - -
18/05:00am 11.5 N 5 6 1015.4 - 0.0 - Partly cloudy 10 - - - -
18/04:30am 11.1 NNW 5 7 1015.6 - 0.0 - Partly cloudy 10 - - - -
18/04:00am 10.7 NNW 6 7 1015.7 - 0.0 - Partly cloudy 10 - - - -

Other Formats:

Comma delimited format used in spreadsheet applications
http://www.bom.gov.au/fwo/IDV60701/IDV60701.94865.axf

JavaScript Object Notation format (JSON) in row-major order
http://www.bom.gov.au/fwo/IDV60701/IDV60701.94865.json